createdAt,value
2022-12-23T00:00:45.574Z,59.20
2022-12-23T00:03:13.174Z,62.40
2022-12-23T00:05:41.518Z,63.67
2022-12-23T00:08:08.992Z,64.32
2022-12-23T00:10:40.286Z,68.80
2022-12-23T00:13:28.412Z,63.10
2022-12-23T00:16:05.406Z,51.72
2022-12-23T00:18:33.687Z,49.28
2022-12-23T00:21:08.550Z,52.13
2022-12-23T00:23:40.448Z,61.42
2022-12-23T00:26:20.234Z,48.53
2022-12-23T00:28:48.163Z,46.15
2022-12-23T00:31:18.747Z,46.35
2022-12-23T00:33:49.435Z,49.58
2022-12-23T00:36:28.803Z,44.00
2022-12-23T00:39:17.569Z,34.38
2022-12-23T00:42:04.628Z,37.15
2022-12-23T00:44:32.145Z,38.22
2022-12-23T00:46:59.670Z,52.93
2022-12-23T00:49:42.269Z,71.70
2022-12-23T00:52:13.868Z,42.63
2022-12-23T00:54:41.613Z,41.85
2022-12-23T00:57:08.997Z,38.00
2022-12-23T00:59:36.424Z,36.35
2022-12-23T01:02:22.942Z,33.90
2022-12-23T01:05:09.205Z,31.40
2022-12-23T01:07:36.640Z,31.33
2022-12-23T01:10:04.542Z,30.85
2022-12-23T01:12:31.912Z,30.13
2022-12-23T01:14:59.368Z,31.65
2022-12-23T01:17:26.823Z,32.90
2022-12-23T01:19:54.341Z,27.67
2022-12-23T01:22:21.680Z,25.10
2022-12-23T01:24:49.077Z,24.23
2022-12-23T01:27:16.443Z,23.65
2022-12-23T01:29:43.866Z,72.07
2022-12-23T01:32:11.476Z,74.35
2022-12-23T01:34:39.762Z,73.35
2022-12-23T01:37:10.343Z,96.60
2022-12-23T01:39:37.737Z,89.60
2022-12-23T01:42:32.058Z,71.57
2022-12-23T01:45:04.600Z,56.45
2022-12-23T01:47:43.129Z,43.47
2022-12-23T01:50:16.197Z,38.38
2022-12-23T01:53:01.721Z,28.10
2022-12-23T01:55:42.954Z,19.40
2022-12-23T01:58:25.237Z,19.52
2022-12-23T02:01:15.945Z,20.60
2022-12-23T02:03:45.290Z,23.02
2022-12-23T02:06:44.608Z,20.63
2022-12-23T02:09:23.498Z,20.73
2022-12-23T02:12:43.456Z,18.95
2022-12-23T02:15:41.691Z,158.15
2022-12-23T02:21:38.008Z,33.47
2022-12-23T02:24:37.887Z,27.17
2022-12-23T02:27:16.460Z,19.83
2022-12-23T02:30:25.283Z,17.90
2022-12-23T02:33:19.687Z,20.25
2022-12-23T02:35:55.596Z,40.70
2022-12-23T02:38:44.740Z,73.25
2022-12-23T02:42:06.330Z,69.57
2022-12-23T02:44:40.960Z,61.97
2022-12-23T02:47:19.879Z,45.55
2022-12-23T02:49:55.752Z,34.10
2022-12-23T02:52:32.299Z,33.80
2022-12-23T02:55:10.715Z,36.20
2022-12-23T03:00:11.753Z,47.20
2022-12-23T03:02:41.826Z,42.72
2022-12-23T03:05:34.945Z,41.33
2022-12-23T03:08:06.527Z,40.53
2022-12-23T03:11:02.991Z,37.05
2022-12-23T03:14:03.711Z,33.00
2022-12-23T03:17:22.764Z,27.67
2022-12-23T03:20:14.534Z,20.92
2022-12-23T03:23:18.821Z,17.50
2022-12-23T03:26:10.776Z,15.60
2022-12-23T03:28:46.303Z,18.65
2022-12-23T03:31:23.582Z,16.75
2022-12-23T03:34:02.732Z,23.00
2022-12-23T03:36:40.087Z,20.85
2022-12-23T03:39:16.097Z,23.90
2022-12-23T03:41:55.672Z,14.27
2022-12-23T03:44:31.811Z,13.60
2022-12-23T03:47:13.377Z,15.85
2022-12-23T03:49:49.414Z,42.20
2022-12-23T03:52:25.145Z,38.35
2022-12-23T03:55:01.824Z,53.47
2022-12-23T03:57:40.323Z,27.42
2022-12-23T04:03:11.268Z,16.85
2022-12-23T04:05:42.463Z,17.05
2022-12-23T04:08:19.452Z,16.75
2022-12-23T04:10:47.450Z,16.83
2022-12-23T04:13:14.884Z,15.75
2022-12-23T04:15:43.304Z,11.73
2022-12-23T04:20:38.928Z,22.05
2022-12-23T04:23:06.444Z,21.20
2022-12-23T04:25:33.847Z,22.90
2022-12-23T04:28:02.092Z,15.50
2022-12-23T04:30:33.978Z,18.00
2022-12-23T04:33:02.475Z,16.05
2022-12-23T04:35:30.445Z,16.13
2022-12-23T04:37:57.880Z,14.52
2022-12-23T04:40:25.317Z,19.48
2022-12-23T04:42:52.716Z,15.68
2022-12-23T04:45:20.193Z,14.95
2022-12-23T04:47:47.579Z,11.23
2022-12-23T04:50:17.877Z,11.07
2022-12-23T04:52:45.378Z,10.90
2022-12-23T04:55:12.960Z,18.40
2022-12-23T04:57:40.469Z,14.40
2022-12-23T05:00:08.987Z,17.50
2022-12-23T05:02:36.522Z,28.45
2022-12-23T05:05:04.482Z,17.37
2022-12-23T05:07:31.901Z,20.67
2022-12-23T05:10:01.908Z,15.52
2022-12-23T05:12:30.631Z,21.15
2022-12-23T05:14:58.061Z,15.73
2022-12-23T05:17:25.475Z,8.20
2022-12-23T05:19:52.870Z,10.82
2022-12-23T05:22:20.263Z,11.10
2022-12-23T05:24:47.597Z,14.68
2022-12-23T05:27:14.980Z,13.68
2022-12-23T05:29:42.572Z,12.85
2022-12-23T05:32:10.220Z,16.33
2022-12-23T05:34:37.830Z,9.15
2022-12-23T05:37:05.291Z,12.80
2022-12-23T05:39:32.698Z,9.85
2022-12-23T05:42:00.141Z,16.88
2022-12-23T05:44:27.648Z,9.93
2022-12-23T05:46:55.029Z,7.18
2022-12-23T05:49:22.820Z,10.43
2022-12-23T05:51:50.260Z,10.52
2022-12-23T05:54:17.711Z,9.63
2022-12-23T05:56:45.046Z,7.75
2022-12-23T05:59:12.592Z,9.77
2022-12-23T06:01:40.021Z,8.23
2022-12-23T06:04:07.657Z,9.00
2022-12-23T06:06:35.287Z,9.65
2022-12-23T06:09:02.704Z,8.80
2022-12-23T06:11:30.168Z,7.95
2022-12-23T06:13:57.672Z,11.27
2022-12-23T06:16:25.265Z,9.53
2022-12-23T06:19:10.467Z,9.85
2022-12-23T06:21:37.835Z,10.38
2022-12-23T06:24:05.937Z,9.60
2022-12-23T06:26:34.341Z,11.68
2022-12-23T06:29:02.324Z,18.17
2022-12-23T06:31:29.798Z,16.08
2022-12-23T06:33:57.275Z,12.25
2022-12-23T06:36:31.667Z,14.55
2022-12-23T06:38:59.052Z,27.95
2022-12-23T06:41:26.451Z,17.17
2022-12-23T06:43:54.614Z,17.13
2022-12-23T06:46:22.277Z,9.57
2022-12-23T06:48:49.653Z,13.40
2022-12-23T06:51:17.083Z,8.35
2022-12-23T06:53:44.525Z,6.20
2022-12-23T06:56:11.985Z,7.40
2022-12-23T06:58:39.415Z,7.97
2022-12-23T07:01:06.854Z,8.15
2022-12-23T07:03:34.541Z,8.85
2022-12-23T07:06:02.087Z,8.20
2022-12-23T07:08:29.447Z,8.20
2022-12-23T07:11:01.978Z,7.63
2022-12-23T07:13:30.665Z,11.88
2022-12-23T07:15:58.148Z,10.88
2022-12-23T07:18:26.184Z,11.70
2022-12-23T07:20:53.621Z,8.95
2022-12-23T07:23:21.075Z,10.02
2022-12-23T07:25:48.460Z,8.30
2022-12-23T07:28:15.876Z,10.52
2022-12-23T07:30:44.541Z,10.90
2022-12-23T07:33:11.900Z,10.95
2022-12-23T07:35:39.385Z,9.77
2022-12-23T07:38:06.777Z,8.75
2022-12-23T07:40:34.416Z,8.97
2022-12-23T07:43:02.410Z,6.80
2022-12-23T07:45:30.270Z,5.55
2022-12-23T07:48:00.809Z,5.00
2022-12-23T07:50:28.491Z,6.50
2022-12-23T07:52:57.693Z,4.40
2022-12-23T07:55:25.092Z,8.27
2022-12-23T07:57:53.771Z,20.60
2022-12-23T08:00:21.721Z,17.80
2022-12-23T08:02:49.459Z,11.18
2022-12-23T08:07:49.819Z,7.47
2022-12-23T08:10:17.308Z,6.95
2022-12-23T08:12:46.437Z,9.15
2022-12-23T08:15:13.949Z,7.70
2022-12-23T08:17:41.373Z,16.48
2022-12-23T08:20:09.342Z,33.92
2022-12-23T08:22:36.873Z,8.30
2022-12-23T08:27:31.869Z,6.70
2022-12-23T08:29:59.239Z,7.13
2022-12-23T08:32:28.485Z,7.90
2022-12-23T08:34:57.674Z,7.40
2022-12-23T08:37:25.449Z,7.35
2022-12-23T08:39:52.958Z,9.80
2022-12-23T08:44:47.586Z,17.15
2022-12-23T08:49:42.408Z,97.45
2022-12-23T08:54:37.029Z,122.32
2022-12-23T08:57:04.495Z,94.75
2022-12-23T08:59:31.892Z,176.13
2022-12-23T09:02:02.063Z,159.52
2022-12-23T09:04:29.680Z,200.48
2022-12-23T09:06:57.067Z,177.52
2022-12-23T09:09:24.459Z,168.07
2022-12-23T09:11:51.931Z,197.65
2022-12-23T09:14:19.390Z,215.75
2022-12-23T09:16:50.527Z,229.02
2022-12-23T09:19:18.045Z,199.95
2022-12-23T09:26:40.098Z,249.20
2022-12-23T09:29:07.585Z,247.40
2022-12-23T09:34:06.340Z,246.75
2022-12-23T09:36:33.993Z,250.57
2022-12-23T09:39:01.411Z,257.65
2022-12-23T09:41:53.431Z,250.93
2022-12-23T09:45:11.348Z,249.48
2022-12-23T09:47:41.548Z,238.57
2022-12-23T09:50:25.651Z,234.65
2022-12-23T09:53:08.469Z,221.68
2022-12-23T09:56:01.708Z,202.15
2022-12-23T09:58:39.922Z,184.88
2022-12-23T10:01:56.440Z,171.60
2022-12-23T10:05:03.371Z,175.05
2022-12-23T10:08:04.229Z,228.85
2022-12-23T10:10:56.610Z,157.43
2022-12-23T10:14:02.041Z,146.23
2022-12-23T10:16:38.396Z,148.00
2022-12-23T10:19:41.871Z,121.90
2022-12-23T10:22:17.169Z,103.50
2022-12-23T10:24:48.373Z,106.07
2022-12-23T10:27:31.187Z,92.57
2022-12-23T10:30:34.265Z,78.65
2022-12-23T10:33:37.292Z,77.32
2022-12-23T10:36:23.554Z,78.07
2022-12-23T10:39:19.214Z,79.00
2022-12-23T10:42:14.970Z,73.20
2022-12-23T10:44:54.046Z,73.78
2022-12-23T10:48:06.062Z,74.80
2022-12-23T10:50:49.944Z,70.22
2022-12-23T10:53:36.863Z,69.30
2022-12-23T10:58:41.137Z,71.97
2022-12-23T11:01:16.200Z,84.95
2022-12-23T11:04:01.723Z,70.65
2022-12-23T11:06:37.182Z,54.83
2022-12-23T11:09:23.869Z,44.15
2022-12-23T11:11:59.263Z,18.73
2022-12-23T11:14:34.998Z,24.45
2022-12-23T11:17:04.999Z,13.88
2022-12-23T11:19:32.420Z,17.95
2022-12-23T11:23:39.809Z,15.23
2022-12-23T11:26:13.252Z,25.10
2022-12-23T11:28:52.970Z,22.52
2022-12-23T11:31:35.281Z,7.18
2022-12-23T11:34:07.236Z,2.25
2022-12-23T11:36:35.359Z,7.63
2022-12-23T11:39:32.403Z,3.00
2022-12-23T11:44:52.014Z,4.17
2022-12-23T11:47:22.513Z,2.20
2022-12-23T11:49:56.715Z,1.77
2022-12-23T11:52:31.122Z,2.00
2022-12-23T11:55:05.888Z,1.45
2022-12-23T11:57:48.980Z,29.20
2022-12-23T12:00:27.639Z,22.50
2022-12-23T12:03:00.406Z,6.38
2022-12-23T12:05:46.681Z,2.60
2022-12-23T12:08:20.226Z,2.60
2022-12-23T12:10:53.085Z,5.15
2022-12-23T12:13:30.759Z,3.33
2022-12-23T12:16:14.364Z,10.18
2022-12-23T12:18:50.477Z,21.55
2022-12-23T12:21:27.248Z,9.10
2022-12-23T12:24:18.941Z,2.67
2022-12-23T12:26:54.424Z,5.00
2022-12-23T12:29:39.007Z,27.00
2022-12-23T12:32:34.866Z,4.68
2022-12-23T12:35:14.565Z,7.22
2022-12-23T12:38:02.491Z,10.55
2022-12-23T12:43:33.415Z,8.00
2022-12-23T12:46:30.845Z,23.13
2022-12-23T12:49:25.113Z,5.13
2022-12-23T12:52:02.462Z,6.80
2022-12-23T12:54:51.707Z,4.10
2022-12-23T12:57:23.536Z,7.72
2022-12-23T13:00:01.627Z,7.30
2022-12-23T13:02:44.671Z,19.05
2022-12-23T13:06:05.102Z,9.95
2022-12-23T13:09:00.535Z,4.20
2022-12-23T13:12:01.742Z,10.45
2022-12-23T13:14:50.134Z,4.68
2022-12-23T13:17:17.545Z,3.33
2022-12-23T13:19:59.393Z,4.50
2022-12-23T13:22:34.373Z,36.53
2022-12-23T13:25:14.011Z,9.82
2022-12-23T13:27:55.420Z,3.38
2022-12-23T13:30:27.065Z,23.80
2022-12-23T13:33:28.294Z,10.07
2022-12-23T13:36:36.452Z,13.10
2022-12-23T13:39:38.461Z,10.63
2022-12-23T13:42:13.723Z,8.35
2022-12-23T13:44:41.667Z,9.90
2022-12-23T13:47:45.631Z,9.70
2022-12-23T13:50:33.409Z,7.65
2022-12-23T13:53:06.649Z,33.58
2022-12-23T13:56:26.996Z,9.45
2022-12-23T13:58:54.957Z,5.13
2022-12-23T14:01:44.006Z,13.75
2022-12-23T14:04:35.897Z,22.48
2022-12-23T14:07:24.227Z,7.45
2022-12-23T14:09:58.798Z,6.75
2022-12-23T14:12:30.980Z,8.60
2022-12-23T14:15:25.000Z,14.10
2022-12-23T14:18:31.273Z,13.75
2022-12-23T14:21:25.869Z,35.30
2022-12-23T14:23:59.575Z,89.13
2022-12-23T14:26:50.126Z,66.25
2022-12-23T14:29:43.541Z,103.13
2022-12-23T14:32:27.993Z,112.57
2022-12-23T14:35:23.169Z,46.60
2022-12-23T14:38:13.920Z,67.15
2022-12-23T14:40:59.498Z,10.30
2022-12-23T14:43:42.915Z,10.25
2022-12-23T14:46:35.901Z,18.42
2022-12-23T14:49:39.434Z,6.57
2022-12-23T14:52:40.809Z,3.13
2022-12-23T14:55:32.638Z,10.57
2022-12-23T15:00:55.198Z,22.42
2022-12-23T15:03:23.224Z,24.02
2022-12-23T15:05:51.342Z,18.40
2022-12-23T15:08:37.219Z,11.82
2022-12-23T15:11:09.314Z,21.55
2022-12-23T15:13:38.005Z,10.13
2022-12-23T15:16:05.816Z,12.35
2022-12-23T15:18:33.299Z,29.50
2022-12-23T15:21:04.642Z,57.40
2022-12-23T15:23:33.322Z,17.50
2022-12-23T15:26:02.389Z,12.90
2022-12-23T15:28:38.624Z,37.08
2022-12-23T15:31:35.142Z,118.45
2022-12-23T15:34:16.546Z,60.20
2022-12-23T15:36:45.822Z,67.75
2022-12-23T15:39:25.044Z,62.28
2022-12-23T15:41:52.409Z,117.38
2022-12-23T15:44:24.658Z,125.53
2022-12-23T15:46:53.580Z,72.50
2022-12-23T15:49:21.807Z,79.65
2022-12-23T15:52:08.711Z,54.50
2022-12-23T15:54:45.473Z,81.07
2022-12-23T15:57:19.498Z,58.92
2022-12-23T15:59:47.658Z,70.28
2022-12-23T16:05:35.253Z,40.15
2022-12-23T16:08:29.778Z,101.35
2022-12-23T16:11:00.612Z,78.32
2022-12-23T16:13:28.273Z,144.98
2022-12-23T16:16:38.530Z,723.63
2022-12-23T16:19:27.152Z,150.98
2022-12-23T16:21:54.568Z,134.02
2022-12-23T16:24:22.146Z,158.07
2022-12-23T16:26:49.516Z,117.13
2022-12-23T16:29:17.025Z,142.60
2022-12-23T16:31:52.178Z,237.45
2022-12-23T16:34:24.980Z,125.80
2022-12-23T16:36:52.441Z,93.47
2022-12-23T16:39:23.159Z,65.13
2022-12-23T16:41:51.050Z,92.65
2022-12-23T16:44:18.516Z,98.22
2022-12-23T16:46:49.566Z,237.13
2022-12-23T16:49:21.568Z,255.32
2022-12-23T16:51:49.604Z,662.17
2022-12-23T16:54:20.386Z,659.22
2022-12-23T16:56:47.938Z,489.17
2022-12-23T16:59:15.754Z,600.92
2022-12-23T17:01:46.813Z,225.35
2022-12-23T17:04:14.963Z,75.40
2022-12-23T17:06:42.519Z,39.30
2022-12-23T17:09:11.305Z,19.60
2022-12-23T17:11:44.705Z,30.90
2022-12-23T17:14:24.662Z,25.23
2022-12-23T17:16:52.710Z,20.05
2022-12-23T17:19:27.993Z,31.77
2022-12-23T17:22:02.655Z,32.55
2022-12-23T17:24:30.167Z,24.10
2022-12-23T17:26:58.249Z,21.38
2022-12-23T17:29:25.765Z,18.52
2022-12-23T17:31:54.074Z,20.88
2022-12-23T17:34:24.438Z,11.70
2022-12-23T17:36:52.806Z,14.13
2022-12-23T17:39:21.896Z,12.60
2022-12-23T17:41:49.720Z,16.20
2022-12-23T17:44:18.829Z,14.32
2022-12-23T17:46:46.972Z,25.38
2022-12-23T17:49:14.682Z,30.50
2022-12-23T17:51:42.981Z,15.52
2022-12-23T17:54:23.200Z,9.52
2022-12-23T17:56:51.276Z,10.82
2022-12-23T17:59:19.002Z,12.48
2022-12-23T18:01:46.717Z,10.87
2022-12-23T18:04:14.485Z,14.25
2022-12-23T18:06:42.048Z,13.40
2022-12-23T18:09:09.534Z,14.75
2022-12-23T18:11:43.739Z,18.20
2022-12-23T18:14:19.803Z,17.05
2022-12-23T18:16:47.343Z,19.23
2022-12-23T18:19:20.354Z,20.17
2022-12-23T18:21:48.384Z,23.08
2022-12-23T18:24:16.493Z,28.67
2022-12-23T18:26:45.192Z,23.00
2022-12-23T18:29:14.632Z,6.97
2022-12-23T18:31:51.077Z,11.73
2022-12-23T18:34:20.666Z,9.35
2022-12-23T18:36:48.792Z,9.82
2022-12-23T18:39:16.369Z,24.63
2022-12-23T18:41:43.769Z,12.77
2022-12-23T18:44:20.355Z,9.05
2022-12-23T18:46:48.682Z,18.50
2022-12-23T18:51:43.704Z,15.30
2022-12-23T18:54:15.390Z,17.53
2022-12-23T18:56:43.670Z,9.80
2022-12-23T18:59:27.408Z,8.65
2022-12-23T19:01:57.988Z,8.80
2022-12-23T19:04:26.959Z,12.05
2022-12-23T19:06:55.932Z,11.45
2022-12-23T19:09:25.156Z,11.98
2022-12-23T19:11:54.309Z,17.38
2022-12-23T19:14:22.235Z,10.98
2022-12-23T19:16:52.199Z,9.27
2022-12-23T19:19:21.041Z,9.35
2022-12-23T19:21:48.546Z,7.82
2022-12-23T19:24:16.129Z,8.38
2022-12-23T19:26:43.549Z,11.63
2022-12-23T19:29:11.002Z,12.45
2022-12-23T19:31:38.575Z,12.80
2022-12-23T19:34:11.089Z,11.27
2022-12-23T19:36:42.306Z,8.68
2022-12-23T19:39:16.162Z,14.52
2022-12-23T19:41:44.165Z,15.02
2022-12-23T19:44:11.577Z,15.63
2022-12-23T19:46:39.122Z,12.13
2022-12-23T19:49:06.543Z,10.50
2022-12-23T19:51:34.033Z,16.60
2022-12-23T19:54:01.516Z,15.27
2022-12-23T19:56:30.404Z,11.48
2022-12-23T19:58:58.165Z,9.20
2022-12-23T20:01:27.251Z,13.70
2022-12-23T20:03:56.200Z,10.38
2022-12-23T20:06:28.066Z,9.18
2022-12-23T20:09:00.585Z,13.57
2022-12-23T20:11:30.814Z,16.65
2022-12-23T20:14:00.224Z,12.63
2022-12-23T20:16:29.354Z,9.98
2022-12-23T20:18:57.512Z,13.35
2022-12-23T20:21:25.359Z,11.07
2022-12-23T20:23:53.602Z,12.05
2022-12-23T20:26:21.503Z,11.43
2022-12-23T20:28:49.033Z,8.32
2022-12-23T20:31:20.955Z,9.10
2022-12-23T20:33:51.724Z,13.32
2022-12-23T20:36:29.128Z,11.75
2022-12-23T20:38:57.762Z,15.60
2022-12-23T20:41:28.785Z,12.77
2022-12-23T20:46:46.179Z,12.75
2022-12-23T20:49:13.673Z,12.60
2022-12-23T20:51:41.236Z,10.07
2022-12-23T20:54:09.290Z,12.27
2022-12-23T20:56:36.769Z,15.18
2022-12-23T20:59:04.249Z,14.82
2022-12-23T21:01:36.485Z,19.42
2022-12-23T21:04:07.984Z,20.75
2022-12-23T21:06:36.745Z,14.57
2022-12-23T21:09:07.465Z,12.38
2022-12-23T21:11:41.605Z,8.13
2022-12-23T21:14:09.628Z,6.90
2022-12-23T21:16:38.251Z,13.00
2022-12-23T21:19:08.712Z,9.57
2022-12-23T21:21:36.461Z,14.85
2022-12-23T21:24:05.156Z,16.50
2022-12-23T21:26:35.290Z,8.77
2022-12-23T21:29:05.808Z,12.18
2022-12-23T21:31:37.882Z,14.32
2022-12-23T21:34:06.463Z,12.88
2022-12-23T21:39:06.922Z,16.65
2022-12-23T21:41:38.838Z,18.15
2022-12-23T21:44:06.732Z,25.77
2022-12-23T21:46:34.421Z,18.45
2022-12-23T21:49:02.133Z,19.97
2022-12-23T21:51:39.543Z,21.23
2022-12-23T21:54:09.528Z,21.58
2022-12-23T21:56:37.495Z,16.30
2022-12-23T21:59:10.186Z,21.55
2022-12-23T22:01:37.680Z,16.30
2022-12-23T22:04:05.630Z,12.85
2022-12-23T22:06:41.679Z,16.02
2022-12-23T22:09:20.460Z,9.15
2022-12-23T22:11:48.490Z,6.68
2022-12-23T22:14:22.088Z,13.27
2022-12-23T22:16:49.569Z,9.88
2022-12-23T22:19:17.221Z,11.47
2022-12-23T22:21:44.663Z,9.93
2022-12-23T22:24:12.365Z,57.50
2022-12-23T22:26:40.947Z,42.63
2022-12-23T22:31:44.444Z,7.10
2022-12-23T22:34:22.890Z,8.15
2022-12-23T22:39:21.675Z,14.13
2022-12-23T22:41:53.019Z,19.48
2022-12-23T22:44:21.102Z,20.67
2022-12-23T22:46:48.980Z,11.25
2022-12-23T22:49:16.906Z,7.72
2022-12-23T22:51:45.139Z,8.27
2022-12-23T22:54:15.499Z,9.93
2022-12-23T22:56:43.131Z,10.75
2022-12-23T22:59:23.384Z,9.57
2022-12-23T23:01:53.971Z,8.00
2022-12-23T23:04:21.461Z,9.10
2022-12-23T23:06:49.182Z,9.25
2022-12-23T23:09:20.299Z,9.80
2022-12-23T23:11:49.046Z,11.27
2022-12-23T23:14:17.106Z,9.00
2022-12-23T23:16:44.911Z,9.27
2022-12-23T23:19:13.663Z,10.40
2022-12-23T23:21:41.184Z,12.13
2022-12-23T23:24:09.061Z,11.32
2022-12-23T23:26:36.605Z,12.40
2022-12-23T23:29:04.120Z,8.52
2022-12-23T23:31:42.045Z,11.23
2022-12-23T23:34:10.833Z,8.63
2022-12-23T23:36:38.458Z,8.10
2022-12-23T23:39:05.977Z,9.57
2022-12-23T23:41:33.694Z,9.27
2022-12-23T23:44:01.016Z,8.67
2022-12-23T23:46:28.949Z,13.98
2022-12-23T23:48:56.381Z,16.90
2022-12-23T23:51:24.094Z,24.50
2022-12-23T23:53:51.541Z,27.30
2022-12-23T23:56:24.791Z,12.68
2022-12-23T23:58:53.467Z,17.58
